Amelia Court House, Virginia
Current Conditions -  °F | °C
As of 10:55 AM on Friday 31 Oct 2014 (Local Time) from KW81 Reporting Station
Clear Clear  
Wind Chill: 53°   Ceiling: Unl
Heat Index: 53°   Visibility: 10mi
Dew Point: 40°   Wind: 6mph
Humidity: 60%   Direction: 70°ENE
Pressure: 29.95"   Gusts: NA
Location:  37.34°N, 77.98°W
Report Text: KW81 311455Z AUTO 07005KT 10SM CLR 12/04 A2995 RMK AO1 T01170042
Loading
Personal Weather Stations






























Interactive Weather Map
Tropical Storm Tracking
New forecast layout! Learn more

10-Day Weather Forecast

Advertisements
Track Severe Weather on mobile